createdAt,value
2023-05-14T00:02:24.839Z,22.35
2023-05-14T00:04:51.227Z,22.34
2023-05-14T00:07:17.610Z,22.33
2023-05-14T00:09:43.984Z,22.34
2023-05-14T00:12:10.366Z,22.32
2023-05-14T00:14:36.706Z,22.32
2023-05-14T00:17:03.066Z,22.32
2023-05-14T00:19:29.406Z,22.31
2023-05-14T00:21:55.762Z,22.31
2023-05-14T00:24:22.097Z,22.26
2023-05-14T00:26:48.431Z,22.30
2023-05-14T00:29:14.781Z,22.31
2023-05-14T00:31:41.161Z,22.33
2023-05-14T00:34:07.536Z,22.31
2023-05-14T00:36:33.898Z,22.32
2023-05-14T00:39:00.328Z,22.30
2023-05-14T00:41:26.672Z,22.31
2023-05-14T00:43:53.009Z,22.31
2023-05-14T00:46:19.395Z,22.30
2023-05-14T00:48:45.890Z,22.29
2023-05-14T00:51:12.286Z,22.29
2023-05-14T00:53:38.644Z,22.29
2023-05-14T00:56:05.296Z,22.28
2023-05-14T00:58:31.635Z,22.28
2023-05-14T01:00:57.969Z,22.27
2023-05-14T01:03:24.685Z,22.27
2023-05-14T01:06:09.707Z,22.27
2023-05-14T01:08:54.596Z,22.25
2023-05-14T01:11:32.018Z,22.26
2023-05-14T01:14:12.081Z,22.24
2023-05-14T01:16:38.487Z,22.24
2023-05-14T01:19:06.040Z,22.25
2023-05-14T01:21:40.371Z,22.24
2023-05-14T01:24:07.201Z,22.23
2023-05-14T01:26:33.577Z,22.23
2023-05-14T01:29:05.425Z,22.23
2023-05-14T01:31:32.268Z,22.23
2023-05-14T01:33:58.651Z,22.22
2023-05-14T01:36:24.990Z,22.22
2023-05-14T01:38:51.382Z,22.21
2023-05-14T01:41:18.526Z,22.22
2023-05-14T01:43:45.230Z,22.21
2023-05-14T01:46:11.603Z,22.21
2023-05-14T01:48:38.171Z,22.20
2023-05-14T01:51:04.530Z,22.20
2023-05-14T01:53:30.948Z,22.18
2023-05-14T01:55:57.290Z,22.18
2023-05-14T01:58:23.701Z,22.20
2023-05-14T02:00:50.095Z,22.18
2023-05-14T02:03:16.458Z,22.18
2023-05-14T02:05:42.797Z,22.17
2023-05-14T02:08:09.187Z,22.17
2023-05-14T02:10:35.630Z,22.17
2023-05-14T02:13:03.349Z,22.17
2023-05-14T02:15:29.822Z,22.16
2023-05-14T02:17:56.310Z,22.16
2023-05-14T02:20:22.874Z,22.16
2023-05-14T02:22:49.404Z,22.15
2023-05-14T02:25:15.896Z,22.15
2023-05-14T02:27:43.236Z,22.13
2023-05-14T02:30:10.765Z,22.15
2023-05-14T02:32:38.436Z,22.15
2023-05-14T02:35:05.168Z,22.13
2023-05-14T02:37:31.548Z,22.13
2023-05-14T02:39:57.891Z,22.13
2023-05-14T02:42:24.242Z,22.13
2023-05-14T02:44:52.264Z,22.12
2023-05-14T02:47:18.708Z,22.12
2023-05-14T02:49:45.078Z,22.11
2023-05-14T02:52:11.440Z,22.11
2023-05-14T02:54:37.820Z,22.12
2023-05-14T02:57:04.157Z,22.11
2023-05-14T02:59:31.526Z,22.11
2023-05-14T03:01:58.498Z,22.10
2023-05-14T03:04:25.406Z,22.10
2023-05-14T03:06:51.762Z,22.10
2023-05-14T03:09:18.128Z,22.10
2023-05-14T03:11:44.462Z,22.09
2023-05-14T03:14:10.926Z,22.08
2023-05-14T03:16:37.275Z,22.07
2023-05-14T03:19:03.951Z,22.07
2023-05-14T03:21:31.280Z,22.06
2023-05-14T03:23:57.659Z,22.06
2023-05-14T03:26:24.040Z,22.06
2023-05-14T03:28:52.555Z,22.06
2023-05-14T03:31:19.081Z,22.05
2023-05-14T03:33:45.577Z,22.05
2023-05-14T03:36:11.978Z,22.05
2023-05-14T03:38:38.360Z,22.05
2023-05-14T03:41:04.743Z,22.05
2023-05-14T03:43:31.094Z,22.03
2023-05-14T03:45:57.474Z,22.03
2023-05-14T03:48:23.938Z,22.04
2023-05-14T03:50:51.222Z,22.03
2023-05-14T03:53:17.566Z,22.03
2023-05-14T03:55:45.698Z,22.02
2023-05-14T03:58:14.325Z,22.01
2023-05-14T04:00:43.740Z,22.01
2023-05-14T04:03:11.182Z,22.00
2023-05-14T04:05:37.646Z,22.01
2023-05-14T04:08:04.059Z,22.00
2023-05-14T04:10:30.904Z,21.99
2023-05-14T04:12:59.136Z,21.99
2023-05-14T04:15:30.501Z,21.98
2023-05-14T04:17:57.222Z,21.98
2023-05-14T04:20:23.723Z,21.98
2023-05-14T04:22:50.247Z,21.97
2023-05-14T04:25:18.356Z,21.97
2023-05-14T04:27:44.716Z,21.97
2023-05-14T04:30:11.151Z,21.95
2023-05-14T04:32:37.992Z,21.89
2023-05-14T04:35:04.636Z,21.89
2023-05-14T04:37:31.651Z,21.93
2023-05-14T04:39:58.049Z,21.93
2023-05-14T04:42:24.799Z,21.94
2023-05-14T04:44:51.165Z,21.94
2023-05-14T04:47:17.807Z,21.94
2023-05-14T04:49:44.207Z,21.94
2023-05-14T04:52:10.568Z,21.94
2023-05-14T04:54:36.961Z,21.93
2023-05-14T04:57:03.451Z,21.93
2023-05-14T04:59:30.253Z,21.93
2023-05-14T05:01:56.599Z,21.93
2023-05-14T05:04:23.989Z,21.93
2023-05-14T05:06:50.709Z,21.92
2023-05-14T05:09:20.093Z,21.92
2023-05-14T05:11:46.503Z,21.92
2023-05-14T05:14:12.872Z,21.92
2023-05-14T05:16:39.275Z,21.92
2023-05-14T05:19:05.687Z,21.92
2023-05-14T05:21:32.092Z,21.92
2023-05-14T05:23:58.440Z,21.92
2023-05-14T05:26:26.764Z,21.92
2023-05-14T05:28:53.141Z,21.92
2023-05-14T05:31:20.069Z,21.91
2023-05-14T05:33:46.512Z,21.92
2023-05-14T05:36:12.859Z,21.92
2023-05-14T05:38:39.214Z,21.92
2023-05-14T05:41:05.617Z,21.91
2023-05-14T05:43:33.527Z,21.91
2023-05-14T05:46:00.602Z,21.92
2023-05-14T05:48:26.998Z,21.91
2023-05-14T05:50:53.369Z,21.93
2023-05-14T05:53:19.731Z,21.91
2023-05-14T05:55:46.104Z,21.91
2023-05-14T05:58:14.560Z,21.91
2023-05-14T06:00:41.175Z,21.91
2023-05-14T06:03:07.537Z,21.91
2023-05-14T06:05:33.950Z,21.90
2023-05-14T06:08:00.305Z,21.90
2023-05-14T06:10:26.701Z,21.92
2023-05-14T06:12:53.077Z,21.90
2023-05-14T06:15:19.511Z,21.91
2023-05-14T06:17:46.169Z,21.91
2023-05-14T06:20:12.604Z,21.90
2023-05-14T06:22:38.957Z,21.90
2023-05-14T06:25:05.542Z,21.91
2023-05-14T06:27:31.920Z,21.91
2023-05-14T06:29:58.269Z,21.90
2023-05-14T06:32:24.733Z,21.90
2023-05-14T06:34:51.140Z,21.90
2023-05-14T06:37:17.510Z,21.90
2023-05-14T06:39:50.136Z,21.90
2023-05-14T06:42:16.833Z,21.89
2023-05-14T06:44:43.274Z,21.89
2023-05-14T06:47:09.645Z,21.88
2023-05-14T06:49:36.020Z,21.81
2023-05-14T06:52:02.409Z,21.80
2023-05-14T06:54:28.741Z,21.79
2023-05-14T06:56:55.170Z,21.79
2023-05-14T06:59:21.675Z,21.80
2023-05-14T07:01:48.260Z,21.79
2023-05-14T07:04:14.656Z,21.80
2023-05-14T07:06:41.034Z,21.79
2023-05-14T07:09:07.403Z,21.79
2023-05-14T07:11:33.768Z,21.79
2023-05-14T07:14:00.236Z,21.78
2023-05-14T07:16:26.610Z,21.79
2023-05-14T07:18:53.027Z,21.83
2023-05-14T07:21:19.447Z,21.84
2023-05-14T07:23:45.856Z,21.86
2023-05-14T07:26:12.211Z,21.86
2023-05-14T07:28:38.615Z,21.87
2023-05-14T07:31:08.900Z,21.87
2023-05-14T07:33:36.332Z,21.87
2023-05-14T07:36:02.686Z,21.80
2023-05-14T07:38:29.032Z,21.53
2023-05-14T07:40:56.091Z,21.30
2023-05-14T07:43:22.442Z,21.28
2023-05-14T07:45:48.772Z,21.25
2023-05-14T07:48:15.255Z,21.18
2023-05-14T07:50:41.612Z,20.97
2023-05-14T07:53:08.034Z,21.01
2023-05-14T07:55:34.364Z,20.99
2023-05-14T07:58:00.844Z,20.99
2023-05-14T08:00:27.284Z,21.18
2023-05-14T08:02:54.653Z,21.09
2023-05-14T08:05:21.220Z,21.06
2023-05-14T08:07:47.988Z,21.10
2023-05-14T08:10:14.330Z,21.12
2023-05-14T08:12:40.807Z,21.22
2023-05-14T08:15:07.750Z,21.28
2023-05-14T08:17:34.157Z,21.31
2023-05-14T08:20:00.565Z,21.42
2023-05-14T08:22:26.927Z,21.49
2023-05-14T08:24:53.266Z,21.52
2023-05-14T08:27:19.607Z,21.47
2023-05-14T08:29:47.140Z,21.51
2023-05-14T08:32:22.844Z,21.53
2023-05-14T08:34:50.650Z,21.57
2023-05-14T08:37:17.031Z,21.59
2023-05-14T08:39:43.427Z,21.60
2023-05-14T08:42:09.758Z,21.62
2023-05-14T08:44:39.191Z,21.60
2023-05-14T08:47:05.589Z,21.58
2023-05-14T08:49:41.799Z,21.58
2023-05-14T08:52:10.896Z,21.63
2023-05-14T08:54:37.251Z,21.67
2023-05-14T08:57:04.143Z,21.71
2023-05-14T08:59:30.510Z,21.74
2023-05-14T09:01:56.885Z,21.75
2023-05-14T09:04:24.000Z,21.76
2023-05-14T09:06:50.822Z,21.78
2023-05-14T09:09:17.314Z,21.79
2023-05-14T09:11:46.660Z,21.79
2023-05-14T09:14:13.017Z,21.80
2023-05-14T09:16:39.784Z,21.80
2023-05-14T09:19:06.450Z,21.82
2023-05-14T09:21:33.580Z,21.83
2023-05-14T09:24:00.050Z,21.83
2023-05-14T09:26:26.706Z,21.78
2023-05-14T09:28:53.605Z,21.78
2023-05-14T09:31:19.982Z,21.82
2023-05-14T09:33:52.279Z,21.85
2023-05-14T09:36:18.778Z,21.87
2023-05-14T09:38:45.189Z,21.85
2023-05-14T09:41:11.549Z,21.80
2023-05-14T09:43:37.928Z,21.71
2023-05-14T09:46:04.311Z,21.72
2023-05-14T09:48:30.827Z,21.71
2023-05-14T09:50:57.231Z,21.71
2023-05-14T09:53:23.607Z,21.70
2023-05-14T09:55:49.937Z,21.70
2023-05-14T09:58:16.298Z,21.66
2023-05-14T10:00:44.119Z,21.65
2023-05-14T10:03:10.511Z,21.71
2023-05-14T10:05:37.047Z,21.69
2023-05-14T10:08:04.571Z,21.66
2023-05-14T10:10:30.931Z,21.69
2023-05-14T10:12:57.496Z,21.74
2023-05-14T10:15:30.376Z,21.78
2023-05-14T10:17:57.267Z,21.82
2023-05-14T10:20:23.897Z,21.85
2023-05-14T10:22:50.507Z,21.84
2023-05-14T10:25:16.864Z,21.86
2023-05-14T10:27:43.208Z,21.86
2023-05-14T10:30:12.815Z,21.85
2023-05-14T10:32:39.245Z,21.85
2023-05-14T10:35:27.233Z,21.85
2023-05-14T10:37:53.606Z,21.85
2023-05-14T10:40:19.983Z,21.87
2023-05-14T10:42:46.377Z,21.84
2023-05-14T10:45:13.262Z,21.81
2023-05-14T10:47:40.104Z,21.84
2023-05-14T10:50:07.086Z,22.23
2023-05-14T10:52:33.965Z,22.48
2023-05-14T10:55:03.463Z,22.59
2023-05-14T10:57:31.546Z,22.64
2023-05-14T10:59:58.343Z,22.64
2023-05-14T11:02:24.720Z,22.67
2023-05-14T11:05:04.209Z,22.50
2023-05-14T11:07:37.944Z,22.45
2023-05-14T11:10:04.960Z,22.54
2023-05-14T11:12:31.561Z,22.51
2023-05-14T11:14:58.892Z,22.57
2023-05-14T11:17:26.139Z,22.82
2023-05-14T11:19:52.491Z,22.86
2023-05-14T11:22:18.813Z,22.80
2023-05-14T11:24:45.228Z,22.64
2023-05-14T11:27:11.565Z,22.61
2023-05-14T11:29:37.907Z,22.75
2023-05-14T11:32:05.289Z,22.90
2023-05-14T11:34:31.749Z,22.90
2023-05-14T11:36:58.084Z,22.89
2023-05-14T11:39:24.421Z,22.69
2023-05-14T11:41:50.762Z,22.58
2023-05-14T11:44:17.107Z,22.57
2023-05-14T11:46:53.381Z,22.61
2023-05-14T11:49:21.193Z,22.60
2023-05-14T11:51:47.558Z,22.63
2023-05-14T11:54:14.123Z,22.73
2023-05-14T11:56:40.472Z,22.85
2023-05-14T11:59:06.821Z,22.81
2023-05-14T12:01:36.944Z,22.81
2023-05-14T12:04:03.917Z,22.83
2023-05-14T12:06:30.760Z,22.86
2023-05-14T12:08:57.110Z,22.80
2023-05-14T12:11:23.437Z,22.88
2023-05-14T12:13:49.760Z,22.97
2023-05-14T12:16:17.632Z,22.95
2023-05-14T12:18:44.297Z,23.01
2023-05-14T12:21:12.009Z,22.93
2023-05-14T12:23:38.346Z,23.02
2023-05-14T12:26:06.383Z,23.06
2023-05-14T12:28:35.351Z,23.00
2023-05-14T12:31:03.612Z,23.02
2023-05-14T12:33:30.000Z,22.87
2023-05-14T12:36:21.990Z,22.84
2023-05-14T12:38:49.091Z,22.90
2023-05-14T12:41:15.541Z,22.87
2023-05-14T12:43:42.793Z,22.64
2023-05-14T12:46:09.142Z,22.41
2023-05-14T12:48:35.481Z,22.45
2023-05-14T12:51:01.841Z,22.38
2023-05-14T12:53:28.204Z,22.32
2023-05-14T12:55:54.580Z,22.31
2023-05-14T12:58:20.945Z,22.33
2023-05-14T13:00:47.329Z,22.30
2023-05-14T13:03:13.726Z,22.32
2023-05-14T13:05:40.095Z,22.39
2023-05-14T13:08:06.438Z,22.39
2023-05-14T13:10:32.827Z,22.34
2023-05-14T13:12:59.174Z,22.33
2023-05-14T13:15:25.683Z,22.37
2023-05-14T13:17:52.264Z,22.35
2023-05-14T13:20:18.686Z,22.32
2023-05-14T13:22:45.064Z,22.34
2023-05-14T13:25:11.484Z,22.38
2023-05-14T13:27:37.846Z,22.36
2023-05-14T13:30:04.373Z,22.36
2023-05-14T13:32:30.952Z,22.42
2023-05-14T13:34:57.338Z,22.41
2023-05-14T13:37:24.201Z,22.38
2023-05-14T13:39:51.556Z,22.36
2023-05-14T13:42:18.213Z,22.40
2023-05-14T13:44:44.559Z,22.43
2023-05-14T13:47:10.958Z,22.47
2023-05-14T13:49:37.313Z,22.51
2023-05-14T13:52:03.717Z,22.42
2023-05-14T13:54:30.057Z,22.48
2023-05-14T13:56:56.419Z,22.49
2023-05-14T13:59:23.842Z,22.53
2023-05-14T14:01:51.507Z,22.53
2023-05-14T14:04:18.132Z,22.53
2023-05-14T14:06:44.498Z,22.52
2023-05-14T14:09:10.870Z,22.54
2023-05-14T14:11:37.221Z,22.55
2023-05-14T14:14:03.581Z,22.56
2023-05-14T14:16:29.974Z,22.57
2023-05-14T14:18:57.301Z,22.56
2023-05-14T14:21:23.748Z,22.56
2023-05-14T14:23:50.115Z,22.54
2023-05-14T14:26:16.462Z,22.55
2023-05-14T14:28:42.914Z,22.57
2023-05-14T14:31:09.292Z,22.56
2023-05-14T14:33:35.691Z,22.57
2023-05-14T14:36:02.163Z,22.57
2023-05-14T14:38:28.518Z,22.57
2023-05-14T14:40:54.906Z,22.57
2023-05-14T14:43:21.266Z,22.57
2023-05-14T14:45:48.994Z,22.57
2023-05-14T14:48:21.944Z,22.58
2023-05-14T14:50:48.277Z,22.58
2023-05-14T14:53:14.611Z,22.58
2023-05-14T14:55:41.056Z,22.59
2023-05-14T14:58:07.403Z,22.59
2023-05-14T15:00:33.760Z,22.59
2023-05-14T15:03:00.297Z,22.59
2023-05-14T15:05:26.768Z,22.59
2023-05-14T15:07:53.243Z,22.59
2023-05-14T15:10:19.647Z,22.60
2023-05-14T15:12:46.014Z,22.58
2023-05-14T15:15:12.370Z,22.59
2023-05-14T15:17:38.838Z,22.61
2023-05-14T15:20:07.283Z,22.62
2023-05-14T15:22:33.780Z,22.64
2023-05-14T15:25:00.175Z,22.62
2023-05-14T15:27:26.907Z,22.62
2023-05-14T15:29:53.259Z,22.63
2023-05-14T15:32:19.600Z,22.64
2023-05-14T15:34:45.953Z,22.64
2023-05-14T15:37:12.354Z,22.84
2023-05-14T15:39:38.694Z,23.09
2023-05-14T15:42:05.054Z,23.14
2023-05-14T15:44:31.619Z,23.19
2023-05-14T15:46:57.968Z,23.20
2023-05-14T15:49:24.307Z,23.21
2023-05-14T15:51:50.680Z,23.24
2023-05-14T15:54:17.019Z,23.28
2023-05-14T15:56:43.366Z,23.31
2023-05-14T15:59:09.749Z,23.33
2023-05-14T16:01:36.134Z,23.46
2023-05-14T16:04:02.557Z,23.34
2023-05-14T16:06:28.991Z,23.39
2023-05-14T16:08:56.068Z,23.35
2023-05-14T16:11:22.426Z,23.32
2023-05-14T16:13:48.747Z,23.28
2023-05-14T16:16:15.127Z,23.24
2023-05-14T16:18:43.137Z,23.16
2023-05-14T16:21:09.580Z,23.22
2023-05-14T16:23:35.904Z,23.29
2023-05-14T16:26:02.313Z,23.35
2023-05-14T16:28:28.685Z,23.47
2023-05-14T16:30:55.030Z,23.59
2023-05-14T16:33:21.379Z,23.47
2023-05-14T16:35:49.038Z,23.39
2023-05-14T16:38:15.406Z,23.30
2023-05-14T16:40:41.831Z,23.30
2023-05-14T16:43:08.156Z,23.31
2023-05-14T16:45:37.159Z,23.42
2023-05-14T16:48:03.824Z,23.60
2023-05-14T16:50:30.223Z,23.54
2023-05-14T16:52:56.569Z,23.55
2023-05-14T16:55:23.235Z,23.54
2023-05-14T16:57:49.814Z,23.48
2023-05-14T17:00:16.150Z,23.38
2023-05-14T17:02:42.558Z,23.33
2023-05-14T17:05:08.942Z,23.39
2023-05-14T17:07:36.683Z,23.37
2023-05-14T17:10:03.046Z,23.37
2023-05-14T17:12:29.423Z,23.35
2023-05-14T17:14:55.775Z,23.31
2023-05-14T17:17:22.108Z,23.21
2023-05-14T17:19:48.457Z,23.24
2023-05-14T17:22:14.814Z,23.13
2023-05-14T17:24:42.349Z,23.19
2023-05-14T17:27:08.727Z,23.19
2023-05-14T17:29:35.062Z,23.17
2023-05-14T17:32:03.421Z,23.12
2023-05-14T17:34:29.839Z,22.96
2023-05-14T17:36:56.189Z,22.84
2023-05-14T17:39:22.555Z,22.62
2023-05-14T17:41:48.889Z,22.54
2023-05-14T17:44:15.317Z,22.45
2023-05-14T17:46:42.352Z,22.49
2023-05-14T17:49:08.729Z,22.38
2023-05-14T17:51:35.105Z,22.44
2023-05-14T17:54:01.491Z,22.39
2023-05-14T17:56:27.863Z,22.37
2023-05-14T17:58:54.277Z,22.35
2023-05-14T18:01:20.685Z,22.31
2023-05-14T18:03:47.449Z,22.18
2023-05-14T18:06:13.831Z,22.21
2023-05-14T18:08:40.166Z,22.19
2023-05-14T18:11:06.553Z,22.27
2023-05-14T18:13:32.920Z,22.43
2023-05-14T18:16:00.516Z,22.48
2023-05-14T18:18:26.886Z,22.51
2023-05-14T18:20:53.274Z,22.54
2023-05-14T18:23:19.680Z,22.55
2023-05-14T18:25:46.084Z,22.54
2023-05-14T18:28:12.823Z,22.54
2023-05-14T18:30:39.189Z,22.54
2023-05-14T18:33:05.592Z,22.41
2023-05-14T18:35:32.080Z,22.42
2023-05-14T18:37:58.419Z,22.42
2023-05-14T18:40:24.783Z,22.42
2023-05-14T18:42:51.118Z,22.44
2023-05-14T18:45:17.500Z,22.43
2023-05-14T18:47:43.931Z,22.44
2023-05-14T18:50:10.387Z,22.42
2023-05-14T18:52:36.739Z,22.42
2023-05-14T18:55:03.085Z,22.41
2023-05-14T18:57:29.463Z,22.41
2023-05-14T18:59:55.867Z,22.39
2023-05-14T19:02:22.274Z,22.38
2023-05-14T19:04:52.803Z,22.38
2023-05-14T19:07:19.662Z,22.36
2023-05-14T19:09:46.168Z,22.36
2023-05-14T19:12:12.940Z,22.36
2023-05-14T19:14:39.282Z,22.36
2023-05-14T19:17:05.713Z,22.35
2023-05-14T19:19:32.100Z,22.34
2023-05-14T19:21:58.553Z,22.34
2023-05-14T19:24:24.944Z,22.32
2023-05-14T19:26:51.288Z,22.32
2023-05-14T19:29:17.631Z,22.32
2023-05-14T19:31:44.010Z,22.31
2023-05-14T19:34:10.813Z,22.31
2023-05-14T19:36:37.229Z,22.31
2023-05-14T19:39:03.816Z,22.30
2023-05-14T19:41:30.236Z,22.30
2023-05-14T19:43:56.571Z,22.30
2023-05-14T19:46:22.950Z,22.29
2023-05-14T19:48:49.356Z,22.28
2023-05-14T19:51:15.726Z,22.27
2023-05-14T19:53:42.132Z,22.27
2023-05-14T19:56:08.516Z,22.26
2023-05-14T19:58:34.896Z,22.27
2023-05-14T20:01:01.330Z,22.26
2023-05-14T20:03:27.825Z,22.26
2023-05-14T20:05:54.732Z,22.25
2023-05-14T20:08:21.061Z,22.24
2023-05-14T20:10:47.708Z,22.24
2023-05-14T20:13:14.040Z,22.23
2023-05-14T20:15:41.048Z,22.23
2023-05-14T20:18:07.520Z,22.22
2023-05-14T20:20:34.103Z,22.22
2023-05-14T20:23:00.610Z,22.21
2023-05-14T20:25:28.555Z,22.20
2023-05-14T20:27:55.238Z,22.20
2023-05-14T20:30:21.581Z,22.20
2023-05-14T20:32:47.983Z,22.18
2023-05-14T20:35:14.365Z,22.18
2023-05-14T20:37:41.339Z,22.17
2023-05-14T20:40:10.361Z,22.18
2023-05-14T20:42:36.946Z,22.17
2023-05-14T20:45:03.773Z,22.16
2023-05-14T20:47:31.895Z,22.16
2023-05-14T20:49:58.354Z,22.15
2023-05-14T20:52:24.690Z,22.15
2023-05-14T20:54:51.015Z,22.15
2023-05-14T20:57:17.856Z,22.15
2023-05-14T20:59:44.202Z,22.14
2023-05-14T21:02:10.824Z,22.14
2023-05-14T21:04:37.390Z,22.15
2023-05-14T21:07:03.878Z,22.13
2023-05-14T21:09:30.220Z,22.13
2023-05-14T21:11:56.562Z,22.13
2023-05-14T21:14:22.930Z,22.12
2023-05-14T21:16:49.299Z,22.11
2023-05-14T21:19:15.750Z,22.11
2023-05-14T21:21:42.104Z,22.11
2023-05-14T21:24:08.463Z,22.11
2023-05-14T21:26:36.816Z,22.11
2023-05-14T21:29:03.255Z,22.10
2023-05-14T21:31:29.619Z,22.10
2023-05-14T21:33:55.994Z,22.10
2023-05-14T21:36:22.342Z,22.09
2023-05-14T21:38:48.694Z,22.09
2023-05-14T21:41:15.051Z,22.08
2023-05-14T21:43:41.396Z,22.07
2023-05-14T21:46:08.506Z,22.08
2023-05-14T21:48:34.982Z,22.07
2023-05-14T21:51:01.351Z,22.07
2023-05-14T21:53:27.711Z,22.06
2023-05-14T21:55:55.256Z,22.05
2023-05-14T21:58:21.665Z,22.06
2023-05-14T22:00:48.041Z,22.05
2023-05-14T22:03:14.448Z,22.05
2023-05-14T22:05:40.932Z,22.05
2023-05-14T22:08:07.446Z,22.04
2023-05-14T22:10:34.414Z,22.04
2023-05-14T22:13:00.743Z,22.04
2023-05-14T22:15:27.177Z,22.04
2023-05-14T22:17:53.546Z,22.02
2023-05-14T22:20:19.921Z,22.02
2023-05-14T22:22:46.247Z,22.03
2023-05-14T22:25:12.572Z,22.02
2023-05-14T22:27:38.916Z,22.02
2023-05-14T22:30:05.533Z,22.03
2023-05-14T22:32:31.920Z,21.99
2023-05-14T22:34:58.280Z,22.01
2023-05-14T22:37:24.598Z,22.00
2023-05-14T22:39:50.929Z,21.99
2023-05-14T22:42:17.270Z,22.00
2023-05-14T22:44:43.664Z,21.99
2023-05-14T22:47:10.215Z,22.00
2023-05-14T22:49:36.558Z,21.99
2023-05-14T22:52:03.118Z,21.98
2023-05-14T22:54:29.449Z,21.98
2023-05-14T22:56:55.785Z,21.97
2023-05-14T22:59:23.701Z,21.97
2023-05-14T23:01:50.511Z,21.98
2023-05-14T23:04:16.958Z,21.98
2023-05-14T23:06:43.360Z,21.96
2023-05-14T23:09:09.700Z,21.97
2023-05-14T23:11:36.045Z,21.96
2023-05-14T23:14:02.374Z,21.96
2023-05-14T23:16:28.716Z,21.96
2023-05-14T23:18:55.198Z,21.95
2023-05-14T23:21:21.608Z,21.95
2023-05-14T23:23:48.457Z,21.93
2023-05-14T23:26:14.844Z,21.94
2023-05-14T23:28:41.187Z,21.93
2023-05-14T23:31:07.529Z,21.93
2023-05-14T23:33:33.882Z,21.93
2023-05-14T23:36:00.297Z,21.92
2023-05-14T23:38:26.782Z,21.92
2023-05-14T23:40:53.129Z,21.92
2023-05-14T23:43:19.495Z,21.91
2023-05-14T23:45:45.854Z,21.91
2023-05-14T23:48:12.251Z,21.91
2023-05-14T23:50:38.654Z,21.91
2023-05-14T23:53:04.992Z,21.90
2023-05-14T23:55:31.319Z,21.89
2023-05-14T23:57:57.681Z,21.89
